createdAt,value
2018-10-02T00:00:49.114Z,98599.61
2018-10-02T00:03:21.351Z,98593.73
2018-10-02T00:05:53.739Z,98592.23
2018-10-02T00:08:25.993Z,98592.98
2018-10-02T00:11:03.931Z,98593.52
2018-10-02T00:13:41.792Z,98588.47
2018-10-02T00:16:14.085Z,98592.41
2018-10-02T00:18:46.329Z,98597.41
2018-10-02T00:21:18.576Z,98603.39
2018-10-02T00:23:50.844Z,98600.61
2018-10-02T00:26:23.121Z,98599.00
2018-10-02T00:28:55.385Z,98603.45
2018-10-02T00:31:27.933Z,98602.72
2018-10-02T00:34:00.202Z,98595.88
2018-10-02T00:36:32.455Z,98599.41
2018-10-02T00:39:05.755Z,98593.69
2018-10-02T00:41:37.995Z,98600.04
2018-10-02T00:44:10.326Z,98596.95
2018-10-02T00:46:42.592Z,98596.47
2018-10-02T00:49:14.867Z,98602.09
2018-10-02T00:51:47.141Z,98600.05
2018-10-02T00:54:19.364Z,98603.47
2018-10-02T00:56:51.635Z,98603.75
2018-10-02T00:59:24.052Z,98598.29
2018-10-02T01:01:56.357Z,98600.72
2018-10-02T01:04:28.633Z,98601.61
2018-10-02T01:07:00.933Z,98598.69
2018-10-02T01:09:33.188Z,98604.01
2018-10-02T01:12:05.493Z,98603.38
2018-10-02T01:14:37.692Z,98595.99
2018-10-02T01:17:09.956Z,98597.90
2018-10-02T01:19:42.321Z,98597.79
2018-10-02T01:22:14.689Z,98601.22
2018-10-02T01:24:47.131Z,98599.95
2018-10-02T01:27:19.393Z,98597.02
2018-10-02T01:29:51.668Z,98597.94
2018-10-02T01:32:24.300Z,98597.55
2018-10-02T01:34:57.133Z,98596.03
2018-10-02T01:37:29.369Z,98599.07
2018-10-02T01:40:01.738Z,98599.08
2018-10-02T01:42:34.140Z,98594.52
2018-10-02T01:45:07.495Z,98583.71
2018-10-02T01:47:39.699Z,98595.93
2018-10-02T01:50:12.009Z,98601.90
2018-10-02T01:52:44.940Z,98597.34
2018-10-02T01:55:17.204Z,98603.70
2018-10-02T01:57:49.460Z,98602.17
2018-10-02T02:00:21.696Z,98607.14
2018-10-02T02:02:53.948Z,98615.14
2018-10-02T02:05:26.175Z,98622.22
2018-10-02T02:07:58.426Z,98629.33
2018-10-02T02:10:30.647Z,98628.44
2018-10-02T02:13:02.944Z,98632.65
2018-10-02T02:15:35.339Z,98633.66
2018-10-02T02:18:07.604Z,98627.80
2018-10-02T02:20:39.857Z,98626.91
2018-10-02T02:23:12.138Z,98629.58
2018-10-02T02:25:44.408Z,98632.89
2018-10-02T02:28:16.759Z,98635.69
2018-10-02T02:30:48.981Z,98635.46
2018-10-02T02:33:21.224Z,98638.47
2018-10-02T02:35:53.459Z,98646.47
2018-10-02T02:38:25.672Z,98644.30
2018-10-02T02:40:57.931Z,98646.86
2018-10-02T02:43:30.289Z,98643.29
2018-10-02T02:46:02.632Z,98641.59
2018-10-02T02:48:40.659Z,98646.06
2018-10-02T02:51:19.376Z,98644.30
2018-10-02T02:53:51.599Z,98648.09
2018-10-02T02:56:23.940Z,98655.19
2018-10-02T02:58:57.296Z,98651.85
2018-10-02T03:01:29.719Z,98661.13
2018-10-02T03:04:01.944Z,98663.50
2018-10-02T03:06:34.176Z,98654.11
2018-10-02T03:09:07.148Z,98658.19
2018-10-02T03:11:39.497Z,98657.39
2018-10-02T03:14:11.747Z,98654.38
2018-10-02T03:16:44.011Z,98665.63
2018-10-02T03:19:16.302Z,98659.66
2018-10-02T03:21:48.619Z,98663.71
2018-10-02T03:24:20.836Z,98663.27
2018-10-02T03:26:53.104Z,98669.78
2018-10-02T03:29:25.336Z,98675.25
2018-10-02T03:31:57.592Z,98670.77
2018-10-02T03:34:29.843Z,98672.88
2018-10-02T03:37:02.159Z,98674.34
2018-10-02T03:39:34.832Z,98679.50
2018-10-02T03:42:07.152Z,98683.77
2018-10-02T03:44:39.428Z,98676.43
2018-10-02T03:47:11.701Z,98680.38
2018-10-02T03:49:43.925Z,98685.80
2018-10-02T03:52:16.333Z,98686.00
2018-10-02T03:54:48.597Z,98686.00
2018-10-02T03:57:20.836Z,98689.53
2018-10-02T03:59:53.064Z,98688.88
2018-10-02T04:02:25.444Z,98684.61
2018-10-02T04:04:57.769Z,98686.53
2018-10-02T04:07:29.980Z,98694.38
2018-10-02T04:10:02.366Z,98696.86
2018-10-02T04:12:34.606Z,98699.13
2018-10-02T04:15:07.196Z,98701.77
2018-10-02T04:17:39.432Z,98694.62
2018-10-02T04:20:11.686Z,98692.28
2018-10-02T04:22:43.989Z,98698.55
2018-10-02T04:25:16.267Z,98693.95
2018-10-02T04:27:48.522Z,98697.59
2018-10-02T04:30:20.865Z,98704.47
2018-10-02T04:32:53.227Z,98706.50
2018-10-02T04:35:25.712Z,98710.36
2018-10-02T04:37:58.061Z,98711.36
2018-10-02T04:40:30.385Z,98713.05
2018-10-02T04:43:02.661Z,98709.31
2018-10-02T04:45:34.959Z,98707.62
2018-10-02T04:48:07.240Z,98707.50
2018-10-02T04:50:39.596Z,98710.22
2018-10-02T04:53:11.853Z,98712.37
2018-10-02T04:55:44.208Z,98711.41
2018-10-02T04:58:16.388Z,98721.35
2018-10-02T05:00:49.102Z,98716.28
2018-10-02T05:03:21.521Z,98712.30
2018-10-02T05:05:53.831Z,98706.61
2018-10-02T05:08:26.200Z,98712.30
2018-10-02T05:10:58.501Z,98724.71
2018-10-02T05:13:30.853Z,98721.00
2018-10-02T05:16:03.175Z,98710.28
2018-10-02T05:18:35.540Z,98706.87
2018-10-02T05:21:07.777Z,98703.22
2018-10-02T05:23:40.310Z,98711.20
2018-10-02T05:26:12.576Z,98708.67
2018-10-02T05:28:44.796Z,98709.17
2018-10-02T05:31:17.053Z,98712.63
2018-10-02T05:33:49.294Z,98713.55
2018-10-02T05:36:21.697Z,98712.05
2018-10-02T05:38:53.964Z,98715.16
2018-10-02T05:41:26.454Z,98713.16
2018-10-02T05:43:58.868Z,98725.34
2018-10-02T05:46:31.196Z,98720.34
2018-10-02T05:49:03.471Z,98724.50
2018-10-02T05:51:35.734Z,98721.55
2018-10-02T05:54:08.164Z,98724.34
2018-10-02T05:56:40.506Z,98724.05
2018-10-02T05:59:12.823Z,98721.63
2018-10-02T06:01:45.224Z,98730.77
2018-10-02T06:04:17.556Z,98735.04
2018-10-02T06:06:49.772Z,98741.58
2018-10-02T06:09:22.138Z,98743.16
2018-10-02T06:11:54.462Z,98733.50
2018-10-02T06:14:27.614Z,98741.27
2018-10-02T06:16:59.974Z,98744.57
2018-10-02T06:19:32.233Z,98747.11
2018-10-02T06:22:04.468Z,98741.69
2018-10-02T06:24:36.962Z,98745.05
2018-10-02T06:27:09.608Z,98743.81
2018-10-02T06:29:41.986Z,98750.72
2018-10-02T06:32:14.512Z,98756.88
2018-10-02T06:34:46.957Z,98747.78
2018-10-02T06:37:19.300Z,98747.05
2018-10-02T06:39:51.649Z,98753.25
2018-10-02T06:42:23.940Z,98753.02
2018-10-02T06:44:56.272Z,98751.06
2018-10-02T06:47:28.493Z,98748.34
2018-10-02T06:50:00.738Z,98738.11
2018-10-02T06:52:33.185Z,98738.53
2018-10-02T06:55:06.437Z,98723.20
2018-10-02T06:57:38.780Z,98722.80
2018-10-02T07:00:11.217Z,98729.34
2018-10-02T07:02:43.538Z,98727.52
2018-10-02T07:05:15.848Z,98732.27
2018-10-02T07:07:48.118Z,98729.45
2018-10-02T07:10:20.382Z,98720.92
2018-10-02T07:12:52.840Z,98714.70
2018-10-02T07:15:25.193Z,98716.38
2018-10-02T07:17:57.519Z,98716.75
2018-10-02T07:20:29.803Z,98715.50
2018-10-02T07:23:02.284Z,98722.50
2018-10-02T07:25:34.583Z,98726.81
2018-10-02T07:28:06.901Z,98730.60
2018-10-02T07:30:39.134Z,98729.23
2018-10-02T07:33:11.337Z,98731.50
2018-10-02T07:35:43.658Z,98736.06
2018-10-02T07:38:15.929Z,98733.87
2018-10-02T07:40:48.199Z,98729.91
2018-10-02T07:43:20.477Z,98726.07
2018-10-02T07:45:52.854Z,98738.52
2018-10-02T07:48:25.192Z,98735.84
2018-10-02T07:50:57.498Z,98738.72
2018-10-02T07:53:29.927Z,98742.85
2018-10-02T07:56:02.256Z,98745.89
2018-10-02T07:58:34.616Z,98748.88
2018-10-02T08:01:06.936Z,98748.38
2018-10-02T08:03:39.254Z,98748.37
2018-10-02T08:06:11.890Z,98743.34
2018-10-02T08:08:44.308Z,98734.38
2018-10-02T08:11:16.581Z,98734.75
2018-10-02T08:13:48.895Z,98736.92
2018-10-02T08:16:21.248Z,98734.36
2018-10-02T08:18:53.617Z,98722.63
2018-10-02T08:21:26.030Z,98728.72
2018-10-02T08:23:58.561Z,98731.00
2018-10-02T08:26:31.291Z,98737.03
2018-10-02T08:29:03.543Z,98739.56
2018-10-02T08:31:35.936Z,98744.69
2018-10-02T08:34:08.380Z,98746.20
2018-10-02T08:36:40.722Z,98747.39
2018-10-02T08:39:13.149Z,98747.00
2018-10-02T08:41:45.649Z,98743.44
2018-10-02T08:44:18.170Z,98746.68
2018-10-02T08:46:50.430Z,98750.52
2018-10-02T08:49:22.736Z,98748.95
2018-10-02T08:51:55.011Z,98742.55
2018-10-02T08:54:27.464Z,98746.70
2018-10-02T08:56:59.794Z,98745.11
2018-10-02T08:59:32.112Z,98740.89
2018-10-02T09:02:04.545Z,98741.77
2018-10-02T09:04:37.038Z,98735.95
2018-10-02T09:07:09.544Z,98741.23
2018-10-02T09:09:41.978Z,98737.00
2018-10-02T09:12:14.379Z,98745.17
2018-10-02T09:14:46.719Z,98743.77
2018-10-02T09:17:19.037Z,98735.85
2018-10-02T09:19:51.281Z,98743.20
2018-10-02T09:22:23.574Z,98745.80
2018-10-02T09:24:55.870Z,98736.67
2018-10-02T09:27:28.373Z,98741.06
2018-10-02T09:30:06.297Z,98745.64
2018-10-02T09:32:44.373Z,98737.68
2018-10-02T09:35:22.190Z,98738.77
2018-10-02T09:38:00.238Z,98736.86
2018-10-02T09:40:38.160Z,98729.09
2018-10-02T09:43:16.240Z,98737.38
2018-10-02T09:45:48.508Z,98734.70
2018-10-02T09:48:20.796Z,98733.20
2018-10-02T09:50:53.088Z,98733.47
2018-10-02T09:53:25.429Z,98731.86
2018-10-02T09:55:57.681Z,98729.37
2018-10-02T09:58:30.096Z,98732.23
2018-10-02T10:02:09.609Z,98728.20
2018-10-02T10:04:41.997Z,98724.86
2018-10-02T10:07:14.301Z,98724.73
2018-10-02T10:09:46.735Z,98722.52
2018-10-02T10:12:19.102Z,98719.87
2018-10-02T10:14:51.426Z,98716.34
2018-10-02T10:17:23.806Z,98718.61
2018-10-02T10:19:56.116Z,98707.22
2018-10-02T10:22:28.530Z,98716.87
2018-10-02T10:25:00.842Z,98710.00
2018-10-02T10:27:33.336Z,98702.59
2018-10-02T10:30:05.675Z,98700.55
2018-10-02T10:32:37.945Z,98697.03
2018-10-02T10:35:10.226Z,98695.81
2018-10-02T10:37:42.504Z,98695.34
2018-10-02T10:40:14.773Z,98693.17
2018-10-02T10:42:47.109Z,98695.41
2018-10-02T10:45:19.480Z,98694.46
2018-10-02T10:47:51.814Z,98696.08
2018-10-02T10:50:24.171Z,98694.05
2018-10-02T10:52:56.526Z,98695.01
2018-10-02T10:55:31.504Z,98701.34
2018-10-02T10:58:03.896Z,98692.77
2018-10-02T11:00:36.244Z,98698.67
2018-10-02T11:03:08.821Z,98687.52
2018-10-02T11:05:41.072Z,98678.72
2018-10-02T11:08:13.412Z,98676.52
2018-10-02T11:10:46.114Z,98677.83
2018-10-02T11:13:18.503Z,98673.65
2018-10-02T11:15:50.914Z,98675.52
2018-10-02T11:18:23.211Z,98675.62
2018-10-02T11:20:55.657Z,98680.23
2018-10-02T11:23:28.015Z,98674.92
2018-10-02T11:26:00.430Z,98672.94
2018-10-02T11:28:32.691Z,98672.36
2018-10-02T11:31:05.091Z,98660.94
2018-10-02T11:33:37.472Z,98651.20
2018-10-02T11:36:09.893Z,98650.94
2018-10-02T11:38:42.232Z,98643.22
2018-10-02T11:41:14.665Z,98635.28
2018-10-02T11:43:47.001Z,98611.74
2018-10-02T11:46:19.318Z,98612.11
2018-10-02T11:48:51.599Z,98603.61
2018-10-02T11:51:23.924Z,98602.48
2018-10-02T11:53:56.241Z,98601.99
2018-10-02T11:56:28.556Z,98597.82
2018-10-02T11:59:00.821Z,98598.64
2018-10-02T12:01:33.224Z,98597.18
2018-10-02T12:04:05.719Z,98597.23
2018-10-02T12:06:38.145Z,98596.52
2018-10-02T12:09:10.557Z,98594.70
2018-10-02T12:11:43.023Z,98591.19
2018-10-02T12:14:15.337Z,98595.12
2018-10-02T12:16:47.492Z,98594.34
2018-10-02T12:19:19.819Z,98595.60
2018-10-02T12:21:52.061Z,98600.88
2018-10-02T12:24:24.373Z,98608.95
2018-10-02T12:26:56.726Z,98611.97
2018-10-02T12:29:29.057Z,98612.67
2018-10-02T12:32:01.331Z,98622.66
2018-10-02T12:34:34.033Z,98611.22
2018-10-02T12:37:06.568Z,98604.14
2018-10-02T12:39:39.206Z,98589.55
2018-10-02T12:42:11.643Z,98597.45
2018-10-02T12:44:43.949Z,98593.84
2018-10-02T12:47:16.300Z,98588.27
2018-10-02T12:52:22.332Z,98579.80
2018-10-02T12:54:54.554Z,98578.91
2018-10-02T12:57:26.903Z,98592.58
2018-10-02T12:59:59.218Z,98592.81
2018-10-02T13:02:31.604Z,98594.34
2018-10-02T13:05:03.940Z,98592.38
2018-10-02T13:07:36.248Z,98588.53
2018-10-02T13:10:08.573Z,98585.89
2018-10-02T13:12:40.884Z,98579.64
2018-10-02T13:15:13.164Z,98579.00
2018-10-02T13:17:45.426Z,98576.50
2018-10-02T13:20:17.711Z,98571.06
2018-10-02T13:22:50.001Z,98567.19
2018-10-02T13:25:22.356Z,98553.70
2018-10-02T13:27:54.628Z,98545.19
2018-10-02T13:30:27.150Z,98544.53
2018-10-02T13:32:59.563Z,98547.98
2018-10-02T13:35:31.824Z,98549.64
2018-10-02T13:38:04.249Z,98542.42
2018-10-02T13:40:36.500Z,98540.97
2018-10-02T13:43:08.821Z,98534.42
2018-10-02T13:45:41.325Z,98530.40
2018-10-02T13:48:13.701Z,98538.09
2018-10-02T13:50:46.327Z,98533.77
2018-10-02T13:53:18.533Z,98535.83
2018-10-02T13:55:50.846Z,98537.44
2018-10-02T13:58:23.157Z,98537.91
2018-10-02T14:00:55.456Z,98532.91
2018-10-02T14:03:27.724Z,98543.66
2018-10-02T14:06:00.020Z,98532.74
2018-10-02T14:08:32.347Z,98536.23
2018-10-02T14:11:04.657Z,98533.77
2018-10-02T14:13:37.300Z,98533.64
2018-10-02T14:16:09.588Z,98544.97
2018-10-02T14:18:41.913Z,98540.02
2018-10-02T14:21:14.260Z,98542.97
2018-10-02T14:23:46.576Z,98538.50
2018-10-02T14:26:18.845Z,98550.84
2018-10-02T14:28:51.176Z,98547.63
2018-10-02T14:31:23.507Z,98538.71
2018-10-02T14:33:55.954Z,98542.16
2018-10-02T14:36:28.315Z,98539.02
2018-10-02T14:39:00.745Z,98537.56
2018-10-02T14:41:33.096Z,98533.67
2018-10-02T14:44:05.565Z,98528.06
2018-10-02T14:46:38.585Z,98526.98
2018-10-02T14:49:11.062Z,98525.05
2018-10-02T14:51:43.504Z,98520.45
2018-10-02T14:54:15.853Z,98525.05
2018-10-02T14:56:48.226Z,98524.48
2018-10-02T14:59:20.853Z,98525.97
2018-10-02T15:01:53.071Z,98523.50
2018-10-02T15:04:25.506Z,98527.52
2018-10-02T15:06:57.874Z,98523.46
2018-10-02T15:09:30.420Z,98533.19
2018-10-02T15:12:02.879Z,98532.20
2018-10-02T15:14:35.210Z,98536.22
2018-10-02T15:17:07.570Z,98532.42
2018-10-02T15:19:39.909Z,98543.27
2018-10-02T15:22:12.404Z,98542.73
2018-10-02T15:24:44.809Z,98537.32
2018-10-02T15:27:17.232Z,98541.22
2018-10-02T15:29:49.549Z,98533.86
2018-10-02T15:32:21.945Z,98526.06
2018-10-02T15:34:54.269Z,98530.94
2018-10-02T15:37:26.817Z,98535.23
2018-10-02T15:39:59.046Z,98531.94
2018-10-02T15:42:31.443Z,98523.80
2018-10-02T15:45:04.201Z,98523.73
2018-10-02T15:47:36.850Z,98517.69
2018-10-02T15:50:09.219Z,98523.66
2018-10-02T15:52:41.634Z,98525.94
2018-10-02T15:55:14.111Z,98531.54
2018-10-02T15:57:46.448Z,98532.78
2018-10-02T16:00:19.167Z,98527.84
2018-10-02T16:02:51.454Z,98535.20
2018-10-02T16:05:23.930Z,98534.94
2018-10-02T16:07:56.368Z,98530.98
2018-10-02T16:10:28.717Z,98522.34
2018-10-02T16:13:01.074Z,98529.11
2018-10-02T16:15:33.420Z,98533.47
2018-10-02T16:18:05.874Z,98528.42
2018-10-02T16:20:38.128Z,98538.48
2018-10-02T16:23:10.593Z,98541.50
2018-10-02T16:25:42.992Z,98541.50
2018-10-02T16:28:15.302Z,98543.00
2018-10-02T16:30:47.661Z,98552.00
2018-10-02T16:33:20.142Z,98550.39
2018-10-02T16:35:52.654Z,98549.22
2018-10-02T16:38:25.186Z,98543.22
2018-10-02T16:40:57.730Z,98542.41
2018-10-02T16:43:30.093Z,98536.55
2018-10-02T16:46:02.522Z,98545.34
2018-10-02T16:48:34.989Z,98547.69
2018-10-02T16:51:07.337Z,98543.98
2018-10-02T16:53:39.817Z,98556.70
2018-10-02T16:56:12.261Z,98555.86
2018-10-02T16:58:44.884Z,98565.19
2018-10-02T17:01:17.252Z,98579.88
2018-10-02T17:03:49.941Z,98578.19
2018-10-02T17:06:22.357Z,98581.53
2018-10-02T17:08:54.683Z,98585.00
2018-10-02T17:11:27.170Z,98582.70
2018-10-02T17:13:59.661Z,98594.85
2018-10-02T17:16:32.528Z,98592.31
2018-10-02T17:19:04.846Z,98597.73
2018-10-02T17:21:37.327Z,98593.51
2018-10-02T17:24:09.746Z,98600.80
2018-10-02T17:26:42.210Z,98600.97
2018-10-02T17:29:14.541Z,98600.70
2018-10-02T17:31:47.186Z,98597.54
2018-10-02T17:34:19.767Z,98601.39
2018-10-02T17:36:52.440Z,98606.33
2018-10-02T17:39:24.784Z,98610.55
2018-10-02T17:41:57.197Z,98604.06
2018-10-02T17:44:29.651Z,98605.70
2018-10-02T17:47:02.190Z,98608.11
2018-10-02T17:49:34.828Z,98615.56
2018-10-02T17:52:07.797Z,98621.60
2018-10-02T17:54:40.495Z,98619.65
2018-10-02T17:57:12.962Z,98628.13
2018-10-02T17:59:45.361Z,98630.97
2018-10-02T18:02:17.798Z,98634.83
2018-10-02T18:04:50.194Z,98620.35
2018-10-02T18:07:22.535Z,98623.98
2018-10-02T18:09:54.910Z,98621.02
2018-10-02T18:12:27.283Z,98619.94
2018-10-02T18:14:59.677Z,98623.49
2018-10-02T18:17:32.030Z,98620.93
2018-10-02T18:20:04.440Z,98620.64
2018-10-02T18:22:36.781Z,98621.23
2018-10-02T18:25:09.235Z,98622.82
2018-10-02T18:27:41.677Z,98622.50
2018-10-02T18:30:14.038Z,98627.14
2018-10-02T18:32:46.461Z,98628.01
2018-10-02T18:35:18.858Z,98631.87
2018-10-02T18:37:51.225Z,98631.75
2018-10-02T18:40:23.602Z,98625.75
2018-10-02T18:42:56.033Z,98630.40
2018-10-02T18:45:28.410Z,98628.31
2018-10-02T18:48:00.698Z,98638.16
2018-10-02T18:50:33.026Z,98635.31
2018-10-02T18:53:05.324Z,98642.31
2018-10-02T18:55:37.654Z,98652.64
2018-10-02T18:58:10.026Z,98653.44
2018-10-02T19:00:42.650Z,98650.41
2018-10-02T19:03:15.020Z,98657.77
2018-10-02T19:05:47.371Z,98667.72
2018-10-02T19:08:25.461Z,98668.63
2018-10-02T19:12:03.038Z,98667.16
2018-10-02T19:14:35.412Z,98668.94
2018-10-02T19:17:07.827Z,98668.44
2018-10-02T19:19:45.920Z,98670.25
2018-10-02T19:22:18.414Z,98670.47
2018-10-02T19:24:50.919Z,98678.96
2018-10-02T19:27:23.376Z,98677.28
2018-10-02T19:30:01.607Z,98681.03
2018-10-02T19:32:34.127Z,98682.22
2018-10-02T19:35:06.659Z,98691.09
2018-10-02T19:37:44.750Z,98689.10
2018-10-02T19:40:17.263Z,98685.35
2018-10-02T19:42:49.709Z,98687.03
2018-10-02T19:45:27.877Z,98693.25
2018-10-02T19:48:00.364Z,98698.69
2018-10-02T19:50:32.804Z,98701.73
2018-10-02T19:53:05.265Z,98699.95
2018-10-02T19:55:37.605Z,98700.34
2018-10-02T19:58:10.020Z,98688.43
2018-10-02T20:00:42.414Z,98689.81
2018-10-02T20:03:14.796Z,98697.50
2018-10-02T20:05:47.182Z,98691.70
2018-10-02T20:08:19.514Z,98696.10
2018-10-02T20:10:51.898Z,98701.74
2018-10-02T20:13:24.290Z,98695.22
2018-10-02T20:15:57.162Z,98696.50
2018-10-02T20:18:29.525Z,98696.63
2018-10-02T20:21:01.929Z,98694.07
2018-10-02T20:23:34.332Z,98694.13
2018-10-02T20:26:06.778Z,98694.44
2018-10-02T20:28:39.136Z,98702.05
2018-10-02T20:31:11.531Z,98708.86
2018-10-02T20:33:43.917Z,98700.75
2018-10-02T20:36:16.283Z,98710.41
2018-10-02T20:38:48.657Z,98707.75
2018-10-02T20:41:21.110Z,98701.84
2018-10-02T20:43:53.504Z,98712.20
2018-10-02T20:46:25.880Z,98714.77
2018-10-02T20:48:58.211Z,98711.59
2018-10-02T20:51:30.613Z,98703.41
2018-10-02T20:54:02.981Z,98702.32
2018-10-02T20:56:35.300Z,98700.38
2018-10-02T20:59:07.668Z,98701.66
2018-10-02T21:01:40.017Z,98705.20
2018-10-02T21:04:12.376Z,98698.20
2018-10-02T21:06:44.697Z,98707.15
2018-10-02T21:09:17.010Z,98699.69
2018-10-02T21:11:49.345Z,98690.89
2018-10-02T21:14:21.814Z,98697.69
2018-10-02T21:16:54.074Z,98700.95
2018-10-02T21:19:26.411Z,98688.65
2018-10-02T21:21:58.717Z,98691.09
2018-10-02T21:24:31.024Z,98693.66
2018-10-02T21:27:03.313Z,98684.88
2018-10-02T21:29:35.607Z,98681.63
2018-10-02T21:32:07.896Z,98671.89
2018-10-02T21:34:40.339Z,98675.81
2018-10-02T21:37:12.546Z,98671.99
2018-10-02T21:39:44.863Z,98675.41
2018-10-02T21:42:17.257Z,98681.73
2018-10-02T21:44:49.549Z,98678.67
2018-10-02T21:47:21.895Z,98687.66
2018-10-02T21:49:54.194Z,98683.90
2018-10-02T21:52:26.477Z,98686.16
2018-10-02T21:54:58.825Z,98686.93
2018-10-02T21:57:31.218Z,98686.34
2018-10-02T22:00:04.136Z,98689.61
2018-10-02T22:02:36.488Z,98692.97
2018-10-02T22:05:08.761Z,98697.29
2018-10-02T22:07:41.061Z,98702.81
2018-10-02T22:10:13.408Z,98697.70
2018-10-02T22:12:45.729Z,98693.17
2018-10-02T22:15:18.093Z,98694.53
2018-10-02T22:17:50.345Z,98700.53
2018-10-02T22:20:22.641Z,98695.02
2018-10-02T22:22:54.937Z,98694.33
2018-10-02T22:25:27.209Z,98686.05
2018-10-02T22:27:59.504Z,98683.12
2018-10-02T22:30:31.750Z,98678.28
2018-10-02T22:33:04.082Z,98680.47
2018-10-02T22:35:36.400Z,98680.74
2018-10-02T22:38:08.765Z,98679.58
2018-10-02T22:40:41.039Z,98674.04
2018-10-02T22:43:13.408Z,98668.05
2018-10-02T22:45:45.695Z,98670.70
2018-10-02T22:48:18.020Z,98663.58
2018-10-02T22:50:50.297Z,98667.93
2018-10-02T22:53:22.613Z,98659.77
2018-10-02T22:55:54.884Z,98660.45
2018-10-02T22:58:27.222Z,98673.06
2018-10-02T23:00:59.541Z,98674.23
2018-10-02T23:03:31.922Z,98671.00
2018-10-02T23:06:04.324Z,98670.30
2018-10-02T23:08:36.614Z,98675.41
2018-10-02T23:11:08.902Z,98674.45
2018-10-02T23:13:41.207Z,98684.59
2018-10-02T23:16:13.460Z,98683.10
2018-10-02T23:18:45.808Z,98680.14
2018-10-02T23:21:18.055Z,98681.23
2018-10-02T23:23:50.455Z,98681.75
2018-10-02T23:26:22.684Z,98680.36
2018-10-02T23:28:55.048Z,98680.16
2018-10-02T23:31:27.567Z,98673.86
2018-10-02T23:33:59.937Z,98668.83
2018-10-02T23:36:32.178Z,98672.95
2018-10-02T23:39:06.339Z,98669.97
2018-10-02T23:41:38.839Z,98668.13
2018-10-02T23:44:11.112Z,98681.30
2018-10-02T23:46:43.358Z,98680.50
2018-10-02T23:49:15.604Z,98681.78
2018-10-02T23:51:47.859Z,98678.66
2018-10-02T23:54:20.145Z,98676.09
2018-10-02T23:56:52.380Z,98675.80
2018-10-02T23:59:24.638Z,98682.05
